Time;durP1;ratioP1;P1;durP2;ratioP2;P2;SDS_P1;SDS_P2;PMS_P1;PMS_P2;Temp;Humidity;BMP_temperature;BMP_pressure;BME280_temperature;BME280_humidity;BME280_pressure;Samples;Min_cycle;Max_cycle;Signal;HPM_P1;HPM_P2
2023/08/27 00:00:29;;;;;;;17.65;11.20;;;26.50;70.60;;;;;;5074858;28;20086;-74
2023/08/27 00:02:55;;;;;;;11.88;10.35;;;26.50;70.50;;;;;;5074380;28;20032;-74
2023/08/27 00:05:21;;;;;;;18.80;11.98;;;26.50;70.30;;;;;;5074429;28;20035;-74
2023/08/27 00:07:47;;;;;;;14.52;11.05;;;26.50;70.20;;;;;;5074716;28;20017;-74
2023/08/27 00:10:12;;;;;;;14.88;10.73;;;26.40;70.20;;;;;;5074685;28;20029;-74
2023/08/27 00:12:38;;;;;;;12.50;10.80;;;26.50;70.40;;;;;;5074235;28;20021;-74
2023/08/27 00:15:05;;;;;;;16.10;10.95;;;26.40;70.40;;;;;;5074169;28;20392;-74
2023/08/27 00:17:31;;;;;;;15.20;11.05;;;26.40;69.90;;;;;;5074382;28;20710;-74
2023/08/27 00:19:58;;;;;;;15.10;10.82;;;26.40;68.90;;;;;;5074570;28;20037;-73
2023/08/27 00:22:23;;;;;;;18.13;11.38;;;26.50;69.40;;;;;;5056431;28;20032;-73
2023/08/27 00:24:49;;;;;;;11.93;10.68;;;26.40;69.80;;;;;;5056396;28;20465;-74
2023/08/27 00:27:15;;;;;;;18.00;11.40;;;26.40;70.20;;;;;;5074161;28;20021;-73
2023/08/27 00:29:41;;;;;;;14.48;10.82;;;26.40;70.50;;;;;;5073865;28;20120;-73
2023/08/27 00:32:06;;;;;;;13.07;11.77;;;26.40;70.60;;;;;;5074045;28;20519;-74
2023/08/27 00:34:35;;;;;;;16.13;11.05;;;26.30;70.80;;;;;;5074128;28;20047;-74
2023/08/27 00:37:03;;;;;;;16.00;11.02;;;26.20;71.00;;;;;;5073894;28;20039;-74
2023/08/27 00:39:29;;;;;;;13.25;10.68;;;26.20;71.10;;;;;;5073375;28;20075;-74
2023/08/27 00:41:56;;;;;;;15.10;11.35;;;26.20;71.40;;;;;;5073574;28;20029;-73
2023/08/27 00:44:21;;;;;;;15.43;11.55;;;26.10;71.70;;;;;;5073807;28;20025;-73
2023/08/27 00:46:50;;;;;;;13.70;11.15;;;26.10;71.50;;;;;;5073787;28;20025;-74
2023/08/27 00:49:16;;;;;;;13.27;11.93;;;26.10;71.70;;;;;;5073726;28;20554;-73
2023/08/27 00:51:44;;;;;;;12.63;10.48;;;26.00;72.00;;;;;;5073725;28;20024;-73
2023/08/27 00:54:11;;;;;;;17.13;11.85;;;25.90;72.20;;;;;;5073743;28;20052;-73
2023/08/27 00:56:38;;;;;;;17.23;10.63;;;25.90;72.40;;;;;;5073555;28;20025;-73
2023/08/27 00:59:04;;;;;;;12.88;11.60;;;25.90;72.80;;;;;;5053183;28;20024;-73
2023/08/27 01:01:31;;;;;;;15.00;10.93;;;25.80;72.90;;;;;;5070971;28;20060;-74
2023/08/27 01:03:57;;;;;;;14.45;12.05;;;25.80;73.00;;;;;;5053049;28;20081;-73
2023/08/27 01:06:23;;;;;;;12.43;11.13;;;25.70;73.00;;;;;;5072534;28;20107;-74
2023/08/27 01:08:56;;;;;;;12.68;11.35;;;25.70;73.30;;;;;;5073235;28;20019;-73
2023/08/27 01:11:32;;;;;;;15.55;11.32;;;25.70;73.00;;;;;;5054847;28;20025;-73
2023/08/27 01:14:10;;;;;;;12.38;10.70;;;25.70;72.80;;;;;;5055206;28;20192;-74
2023/08/27 01:16:36;;;;;;;11.80;9.95;;;25.70;72.30;;;;;;5073055;28;20364;-74
2023/08/27 01:19:10;;;;;;;15.50;10.77;;;25.60;71.50;;;;;;5072771;28;20047;-74
2023/08/27 01:21:36;;;;;;;13.00;10.55;;;25.60;70.70;;;;;;5054773;28;20541;-74
2023/08/27 01:24:02;;;;;;;12.88;10.60;;;25.60;70.50;;;;;;5073130;28;20107;-74
2023/08/27 01:26:39;;;;;;;11.43;10.20;;;25.70;70.60;;;;;;5073100;28;20028;-73
2023/08/27 01:29:33;;;;;;;12.07;10.63;;;25.70;70.70;;;;;;5072621;28;20097;-73
2023/08/27 01:32:29;;;;;;;12.60;11.30;;;25.60;71.00;;;;;;5072984;28;20025;-74
2023/08/27 01:34:56;;;;;;;17.95;11.98;;;25.70;71.70;;;;;;5048714;28;20397;-73
2023/08/27 01:37:23;;;;;;;12.60;11.30;;;25.60;72.20;;;;;;5072717;28;20016;-74
2023/08/27 01:40:00;;;;;;;12.00;10.85;;;25.60;72.60;;;;;;5072593;28;20048;-74
2023/08/27 01:42:27;;;;;;;13.75;11.75;;;25.60;72.90;;;;;;5072874;28;20050;-74
2023/08/27 01:44:55;;;;;;;15.80;12.18;;;25.50;73.10;;;;;;5072758;28;20024;-74
2023/08/27 01:47:21;;;;;;;15.93;11.63;;;25.50;73.30;;;;;;5072465;28;20150;-74
2023/08/27 01:49:48;;;;;;;14.45;12.02;;;25.50;73.50;;;;;;5072662;28;20058;-74
2023/08/27 01:52:14;;;;;;;14.27;11.77;;;25.40;73.40;;;;;;5073155;28;20024;-74
2023/08/27 01:54:39;;;;;;;14.75;11.85;;;25.40;73.40;;;;;;5072796;28;20034;-74
2023/08/27 01:57:05;;;;;;;18.25;11.75;;;25.30;73.60;;;;;;5072676;28;20024;-74
2023/08/27 01:59:31;;;;;;;14.05;11.73;;;25.30;73.80;;;;;;5072530;28;20033;-74
2023/08/27 02:01:57;;;;;;;12.68;11.38;;;25.30;73.70;;;;;;5072534;28;20027;-74
2023/08/27 02:04:23;;;;;;;13.95;11.85;;;25.30;73.70;;;;;;5072643;28;20024;-74
2023/08/27 02:06:49;;;;;;;15.43;11.80;;;25.30;74.00;;;;;;5072650;28;20025;-74
2023/08/27 02:09:15;;;;;;;16.58;12.43;;;25.20;74.10;;;;;;5054259;28;20025;-74
2023/08/27 02:11:41;;;;;;;14.80;11.45;;;25.20;74.00;;;;;;5072676;28;20040;-74
2023/08/27 02:14:07;;;;;;;13.13;11.57;;;25.20;74.00;;;;;;5072502;28;20025;-74
2023/08/27 02:16:34;;;;;;;13.23;11.77;;;25.20;74.20;;;;;;5072887;28;20028;-74
2023/08/27 02:19:01;;;;;;;15.55;11.35;;;25.20;74.50;;;;;;5076908;28;20115;-74
2023/08/27 02:21:26;;;;;;;19.30;11.85;;;25.20;74.30;;;;;;5076714;28;20032;-73
2023/08/27 02:23:52;;;;;;;19.00;12.65;;;25.20;74.30;;;;;;5076648;28;20365;-74
2023/08/27 02:26:18;;;;;;;13.27;11.77;;;25.20;74.10;;;;;;5076526;28;20032;-74
2023/08/27 02:28:46;;;;;;;14.50;11.20;;;25.20;73.40;;;;;;5076459;28;20032;-74
2023/08/27 02:31:12;;;;;;;12.93;10.50;;;25.20;72.90;;;;;;5058682;28;20369;-74
2023/08/27 02:33:43;;;;;;;11.52;10.32;;;25.20;71.90;;;;;;5058399;28;20484;-74
2023/08/27 02:36:09;;;;;;;12.10;10.63;;;25.20;71.00;;;;;;5076184;28;20024;-74
2023/08/27 02:38:35;;;;;;;12.82;10.27;;;25.30;70.60;;;;;;5076004;28;20101;-74
2023/08/27 02:41:01;;;;;;;13.13;10.23;;;25.30;70.20;;;;;;5075894;28;20436;-74
2023/08/27 02:43:27;;;;;;;13.55;10.73;;;25.30;70.00;;;;;;5076165;28;20029;-74
2023/08/27 02:45:53;;;;;;;12.90;10.73;;;25.30;69.90;;;;;;5076114;28;20024;-74
2023/08/27 02:48:18;;;;;;;15.55;10.80;;;25.40;69.80;;;;;;5076201;28;20059;-74
2023/08/27 02:50:44;;;;;;;16.75;11.05;;;25.40;69.70;;;;;;5058143;28;20476;-73
2023/08/27 02:53:10;;;;;;;15.68;10.52;;;25.40;69.70;;;;;;5076112;28;20021;-74
2023/08/27 02:55:36;;;;;;;12.38;10.68;;;25.40;69.90;;;;;;5075948;28;20035;-74
2023/08/27 02:58:02;;;;;;;12.60;10.05;;;25.40;70.30;;;;;;5075847;28;20016;-74
2023/08/27 03:00:28;;;;;;;13.60;10.90;;;25.40;70.60;;;;;;5057995;28;20041;-74
2023/08/27 03:02:54;;;;;;;12.68;9.95;;;25.40;70.70;;;;;;5075922;28;20082;-74
2023/08/27 03:05:19;;;;;;;11.63;10.25;;;25.40;70.60;;;;;;5057989;28;20028;-74
2023/08/27 03:07:45;;;;;;;11.63;10.48;;;25.40;70.40;;;;;;5075774;28;20021;-74
2023/08/27 03:10:13;;;;;;;14.30;10.77;;;25.30;70.20;;;;;;5057565;28;20073;-74
2023/08/27 03:12:38;;;;;;;12.52;9.88;;;25.40;70.10;;;;;;5075703;28;20025;-73
2023/08/27 03:15:04;;;;;;;15.02;10.50;;;25.40;69.80;;;;;;5075751;28;20029;-73
2023/08/27 03:17:30;;;;;;;12.85;10.48;;;25.40;69.60;;;;;;5057771;28;20053;-74
2023/08/27 03:19:56;;;;;;;15.88;10.45;;;25.40;69.60;;;;;;5075240;28;20492;-74
2023/08/27 03:22:22;;;;;;;16.00;10.40;;;25.40;69.60;;;;;;5075455;28;20034;-74
2023/08/27 03:24:47;;;;;;;15.00;10.27;;;25.40;69.90;;;;;;5075478;28;20029;-74
2023/08/27 03:27:13;;;;;;;12.00;9.98;;;25.50;69.90;;;;;;5075302;28;20056;-73
2023/08/27 03:29:39;;;;;;;11.07;9.98;;;25.50;70.00;;;;;;5056980;28;20036;-73
2023/08/27 03:32:05;;;;;;;13.13;10.43;;;25.50;70.10;;;;;;5075255;28;20023;-73
2023/08/27 03:34:31;;;;;;;14.77;10.65;;;25.50;70.30;;;;;;5074917;28;20025;-73
2023/08/27 03:36:57;;;;;;;12.95;10.23;;;25.50;70.40;;;;;;5075144;28;20592;-74
2023/08/27 03:39:23;;;;;;;11.88;10.68;;;25.40;70.30;;;;;;5074989;28;20048;-73
2023/08/27 03:41:49;;;;;;;11.63;9.85;;;25.40;70.60;;;;;;5074656;28;20024;-73
2023/08/27 03:44:15;;;;;;;16.55;10.85;;;25.40;70.60;;;;;;5075141;28;20103;-73
2023/08/27 03:46:41;;;;;;;13.85;10.75;;;25.40;70.50;;;;;;5075097;28;20072;-72
2023/08/27 03:49:07;;;;;;;12.57;11.27;;;25.40;70.90;;;;;;5057097;28;20416;-73
2023/08/27 03:51:33;;;;;;;13.73;11.45;;;25.30;71.50;;;;;;5057171;28;20071;-75
2023/08/27 03:53:58;;;;;;;14.27;11.15;;;25.30;72.10;;;;;;5074853;28;20047;-74
2023/08/27 03:56:24;;;;;;;17.65;11.77;;;25.20;72.60;;;;;;5057118;28;20082;-75
2023/08/27 03:58:50;;;;;;;13.30;11.90;;;25.20;72.80;;;;;;5075057;28;20480;-73
2023/08/27 04:01:16;;;;;;;16.70;11.75;;;25.10;73.00;;;;;;5074860;28;20177;-73
2023/08/27 04:03:42;;;;;;;14.63;11.55;;;25.10;73.40;;;;;;5074606;28;20044;-73
2023/08/27 04:06:10;;;;;;;13.30;11.38;;;25.00;73.60;;;;;;5074653;28;20029;-73
2023/08/27 04:08:36;;;;;;;14.25;12.35;;;25.00;74.00;;;;;;5074902;28;20020;-75
2023/08/27 04:11:02;;;;;;;13.80;11.38;;;25.00;74.20;;;;;;5074683;28;20033;-72
2023/08/27 04:13:28;;;;;;;12.73;11.38;;;25.00;74.30;;;;;;5074669;28;20419;-73
2023/08/27 04:16:21;;;;;;;15.45;11.68;;;25.00;74.30;;;;;;5074367;28;20024;-74
2023/08/27 04:18:47;;;;;;;13.70;11.98;;;25.00;74.30;;;;;;5054130;28;20559;-74
2023/08/27 04:21:12;;;;;;;15.23;12.23;;;25.00;74.40;;;;;;5074248;28;20119;-74
2023/08/27 04:23:38;;;;;;;17.15;11.07;;;25.00;74.50;;;;;;5056102;28;20044;-73
2023/08/27 04:26:04;;;;;;;12.40;10.98;;;24.90;74.40;;;;;;5074235;28;20025;-74
2023/08/27 04:28:31;;;;;;;13.50;10.27;;;25.00;74.10;;;;;;5074098;28;20043;-74
2023/08/27 04:30:57;;;;;;;11.95;10.32;;;25.00;73.90;;;;;;5074232;28;20060;-74
2023/08/27 04:33:23;;;;;;;11.82;10.13;;;25.00;73.70;;;;;;5074009;28;20098;-74
2023/08/27 04:35:52;;;;;;;11.95;10.63;;;25.00;73.50;;;;;;5074058;28;20024;-74
2023/08/27 04:38:19;;;;;;;15.93;11.18;;;25.00;73.40;;;;;;5073842;28;20025;-74
2023/08/27 04:40:52;;;;;;;17.45;10.35;;;25.00;73.00;;;;;;5054978;28;20050;-74
2023/08/27 04:43:18;;;;;;;16.00;9.95;;;25.00;72.90;;;;;;5073918;28;20032;-74
2023/08/27 04:45:44;;;;;;;13.18;10.90;;;25.00;72.80;;;;;;5074224;28;20103;-74
2023/08/27 04:48:09;;;;;;;17.35;10.85;;;25.00;72.60;;;;;;5073888;28;20083;-74
2023/08/27 04:50:37;;;;;;;13.73;10.77;;;25.10;72.30;;;;;;5073542;28;20043;-74
2023/08/27 04:53:03;;;;;;;15.02;10.45;;;25.10;72.30;;;;;;5073321;28;20024;-73
2023/08/27 04:55:38;;;;;;;11.63;10.43;;;25.10;72.30;;;;;;5073709;28;20552;-73
2023/08/27 04:58:05;;;;;;;13.85;10.35;;;25.20;72.30;;;;;;5056981;28;20031;-72
2023/08/27 05:00:31;;;;;;;12.35;10.30;;;25.20;72.60;;;;;;5055918;28;20040;-72
2023/08/27 05:02:57;;;;;;;13.38;10.05;;;25.20;72.90;;;;;;5073399;28;20496;-72
2023/08/27 05:05:23;;;;;;;17.00;10.63;;;25.20;73.00;;;;;;5073386;28;20028;-73
2023/08/27 05:07:49;;;;;;;12.10;10.52;;;25.20;73.10;;;;;;5073399;28;20029;-73
2023/08/27 05:10:15;;;;;;;15.88;9.80;;;25.20;73.10;;;;;;5073502;28;20070;-73
2023/08/27 05:12:41;;;;;;;18.48;10.38;;;25.30;73.30;;;;;;5073785;28;20028;-73
2023/08/27 05:15:07;;;;;;;10.68;9.55;;;25.30;73.00;;;;;;5073130;28;20036;-72
2023/08/27 05:17:33;;;;;;;13.05;9.80;;;25.40;72.80;;;;;;5073309;28;20031;-73
2023/08/27 05:19:58;;;;;;;12.27;9.73;;;25.40;72.70;;;;;;5073239;28;20412;-73
2023/08/27 05:22:24;;;;;;;12.38;10.07;;;25.40;72.50;;;;;;5073350;28;20093;-73
2023/08/27 05:24:50;;;;;;;16.80;9.90;;;25.50;72.50;;;;;;5073248;28;20154;-73
2023/08/27 05:27:15;;;;;;;11.05;9.70;;;25.50;72.60;;;;;;5073219;28;20056;-73
2023/08/27 05:29:41;;;;;;;14.77;10.80;;;25.50;72.50;;;;;;5073165;28;20025;-73
2023/08/27 05:32:07;;;;;;;15.77;9.95;;;25.60;72.40;;;;;;5073146;28;20078;-73
2023/08/27 05:34:33;;;;;;;13.45;10.50;;;25.60;72.20;;;;;;5072779;28;20044;-73
2023/08/27 05:36:59;;;;;;;11.25;10.02;;;25.60;72.10;;;;;;5072896;28;20043;-73
2023/08/27 05:39:24;;;;;;;11.00;9.55;;;25.60;72.10;;;;;;5072867;28;20123;-73
2023/08/27 05:41:50;;;;;;;12.95;9.73;;;25.70;72.30;;;;;;5072800;28;20043;-73
2023/08/27 05:44:17;;;;;;;22.83;10.93;;;25.70;72.30;;;;;;5073121;28;20021;-72
2023/08/27 05:46:42;;;;;;;10.48;9.45;;;25.70;72.50;;;;;;5054933;28;20048;-72
2023/08/27 05:49:08;;;;;;;13.35;10.15;;;25.70;72.70;;;;;;5073078;28;20082;-74
2023/08/27 05:51:34;;;;;;;13.75;9.55;;;25.70;72.50;;;;;;5072898;28;20021;-74
2023/08/27 05:53:59;;;;;;;11.50;10.27;;;25.80;72.60;;;;;;5072466;28;20028;-73
2023/08/27 05:56:28;;;;;;;17.88;11.25;;;25.80;72.60;;;;;;5072313;28;20016;-75
2023/08/27 05:58:54;;;;;;;10.98;9.65;;;25.90;72.70;;;;;;5071989;28;20095;-76
2023/08/27 06:01:20;;;;;;;10.90;9.27;;;25.90;73.10;;;;;;5071586;28;20028;-74
2023/08/27 06:03:46;;;;;;;12.55;9.73;;;26.00;72.70;;;;;;5072749;28;20029;-72
2023/08/27 06:06:11;;;;;;;13.25;10.13;;;26.00;72.00;;;;;;5071783;28;20043;-72
2023/08/27 06:08:37;;;;;;;14.98;9.90;;;26.10;71.60;;;;;;5072778;28;20162;-72
2023/08/27 06:11:04;;;;;;;12.52;9.90;;;26.10;71.50;;;;;;5071864;28;20043;-74
2023/08/27 06:13:30;;;;;;;13.07;9.70;;;26.10;71.50;;;;;;5070522;28;20583;-72
2023/08/27 06:15:56;;;;;;;18.13;11.05;;;26.10;71.40;;;;;;5070460;28;20025;-72
2023/08/27 06:18:22;;;;;;;13.57;10.13;;;26.10;71.40;;;;;;5070468;28;20065;-74
2023/08/27 06:20:48;;;;;;;13.95;10.00;;;26.20;72.00;;;;;;5052573;28;20037;-74
2023/08/27 06:23:14;;;;;;;13.57;9.73;;;26.20;71.90;;;;;;5070661;28;20044;-74
2023/08/27 06:25:40;;;;;;;12.52;10.15;;;26.20;71.90;;;;;;5071263;28;20040;-72
2023/08/27 06:28:07;;;;;;;12.98;10.07;;;26.20;72.30;;;;;;5072391;28;20021;-72
2023/08/27 06:30:33;;;;;;;16.40;9.82;;;26.30;72.50;;;;;;5054656;28;20381;-72
2023/08/27 06:32:59;;;;;;;11.38;9.93;;;26.30;72.30;;;;;;5072775;28;20033;-74
2023/08/27 06:35:25;;;;;;;15.25;9.95;;;26.30;72.60;;;;;;5072650;28;20025;-74
2023/08/27 06:37:51;;;;;;;12.82;9.98;;;26.40;72.90;;;;;;5072702;28;20020;-74
2023/08/27 06:40:17;;;;;;;13.07;9.48;;;26.40;73.00;;;;;;5072289;28;20135;-74
2023/08/27 06:42:42;;;;;;;14.10;9.85;;;26.40;72.80;;;;;;5072406;28;20021;-74
2023/08/27 06:45:09;;;;;;;12.52;9.40;;;26.40;72.50;;;;;;5072508;28;20040;-74
2023/08/27 06:47:35;;;;;;;10.68;9.00;;;26.50;72.60;;;;;;5072711;28;20016;-74
2023/08/27 06:50:04;;;;;;;11.43;9.60;;;26.50;72.10;;;;;;5072639;28;20033;-74
2023/08/27 06:52:31;;;;;;;10.75;9.60;;;26.60;72.00;;;;;;5072344;28;20031;-72
2023/08/27 06:54:58;;;;;;;13.23;9.45;;;26.60;71.80;;;;;;5072468;28;20021;-74
2023/08/27 06:57:24;;;;;;;12.95;9.27;;;26.70;71.70;;;;;;5072509;28;20025;-74
2023/08/27 06:59:49;;;;;;;10.80;9.70;;;26.70;71.60;;;;;;5054356;28;20028;-74
2023/08/27 07:02:16;;;;;;;11.13;9.45;;;26.80;71.60;;;;;;5072345;28;20477;-74
2023/08/27 07:04:41;;;;;;;10.43;9.45;;;26.80;71.60;;;;;;5075509;28;20017;-74
2023/08/27 07:07:07;;;;;;;17.25;10.02;;;26.90;72.20;;;;;;5076055;28;20027;-74
2023/08/27 07:09:33;;;;;;;15.93;9.60;;;26.90;72.10;;;;;;5075998;28;20029;-75
2023/08/27 07:11:58;;;;;;;14.40;9.13;;;27.00;71.80;;;;;;5075678;28;20052;-74
2023/08/27 07:14:24;;;;;;;11.02;9.65;;;27.00;71.50;;;;;;5075874;28;20028;-74
2023/08/27 07:16:50;;;;;;;17.95;9.48;;;27.00;71.50;;;;;;5076044;28;20027;-74
2023/08/27 07:19:16;;;;;;;11.85;8.60;;;27.10;71.40;;;;;;5072877;28;20059;-74
2023/08/27 07:21:41;;;;;;;11.95;9.32;;;27.10;71.30;;;;;;5072994;28;20103;-74
2023/08/27 07:24:08;;;;;;;13.45;9.48;;;27.10;71.80;;;;;;5074833;28;20093;-74
2023/08/27 07:26:34;;;;;;;13.45;9.48;;;27.20;72.00;;;;;;5075688;28;20024;-74
2023/08/27 07:28:59;;;;;;;13.90;8.98;;;27.20;71.70;;;;;;5075609;28;20035;-74
2023/08/27 07:31:25;;;;;;;15.70;9.20;;;27.30;72.10;;;;;;5057586;28;20029;-74
2023/08/27 07:33:51;;;;;;;12.32;8.82;;;27.30;71.90;;;;;;5075383;28;20124;-74
2023/08/27 07:36:17;;;;;;;10.75;9.50;;;27.30;72.50;;;;;;5075436;28;20044;-74
2023/08/27 07:38:42;;;;;;;10.32;9.30;;;27.40;72.40;;;;;;5075269;28;20049;-74
2023/08/27 07:41:09;;;;;;;13.35;9.55;;;27.40;72.40;;;;;;5075163;28;20480;-74
2023/08/27 07:43:35;;;;;;;13.05;9.43;;;27.50;72.30;;;;;;5073575;28;20021;-74
2023/08/27 07:46:01;;;;;;;12.07;9.65;;;27.40;72.10;;;;;;5072474;28;20090;-74
2023/08/27 07:48:27;;;;;;;10.95;9.13;;;27.50;72.20;;;;;;5072463;28;20411;-74
2023/08/27 07:50:53;;;;;;;14.50;9.32;;;27.50;72.00;;;;;;5074730;28;20103;-74
2023/08/27 07:53:19;;;;;;;10.55;8.73;;;27.50;72.60;;;;;;5075110;28;20503;-74
2023/08/27 07:55:45;;;;;;;11.60;9.57;;;27.50;71.90;;;;;;5074980;28;20366;-74
2023/08/27 07:58:11;;;;;;;12.23;10.13;;;27.60;72.20;;;;;;5074701;28;20028;-74
2023/08/27 08:00:36;;;;;;;13.43;9.27;;;27.60;72.20;;;;;;5057117;28;20062;-74
2023/08/27 08:03:02;;;;;;;13.85;9.65;;;27.60;72.50;;;;;;5074936;28;20020;-74
2023/08/27 08:05:28;;;;;;;10.63;9.30;;;27.60;72.70;;;;;;5074579;28;20029;-74
2023/08/27 08:07:54;;;;;;;11.80;9.57;;;27.70;72.70;;;;;;5056600;28;20082;-74
2023/08/27 08:10:23;;;;;;;10.63;9.63;;;27.70;72.70;;;;;;5074881;28;20032;-74
2023/08/27 08:12:52;;;;;;;12.68;10.20;;;27.70;72.60;;;;;;5074464;28;20036;-74
2023/08/27 08:15:18;;;;;;;12.80;9.02;;;27.70;72.60;;;;;;5074668;28;20484;-74
2023/08/27 08:17:44;;;;;;;15.70;9.88;;;27.70;72.90;;;;;;5074714;28;20021;-74
2023/08/27 08:20:11;;;;;;;18.73;9.98;;;27.70;73.00;;;;;;5074145;28;20476;-74
2023/08/27 08:22:37;;;;;;;10.13;9.07;;;27.70;73.20;;;;;;5074241;28;20017;-74
2023/08/27 08:25:04;;;;;;;16.50;9.57;;;27.80;73.20;;;;;;5074312;28;20024;-74
2023/08/27 08:27:29;;;;;;;11.57;9.18;;;27.80;73.00;;;;;;5074394;28;20027;-74
2023/08/27 08:29:55;;;;;;;20.90;10.13;;;27.80;73.50;;;;;;5074270;28;20036;-74
2023/08/27 08:32:21;;;;;;;12.07;9.48;;;27.80;73.00;;;;;;5074258;28;20025;-74
2023/08/27 08:34:46;;;;;;;13.45;10.45;;;27.90;73.50;;;;;;5056420;28;20107;-74
2023/08/27 08:37:12;;;;;;;14.55;10.02;;;27.90;73.80;;;;;;5073400;28;20025;-73
2023/08/27 08:39:38;;;;;;;13.13;9.80;;;27.90;73.50;;;;;;5072989;28;20056;-73
2023/08/27 08:42:45;;;;;;;13.02;9.93;;;28.00;73.60;;;;;;5073527;28;20046;-74
2023/08/27 08:45:26;;;;;;;14.80;10.02;;;28.00;73.50;;;;;;5073283;28;20039;-74
2023/08/27 08:47:55;;;;;;;16.42;10.07;;;28.00;73.30;;;;;;5073458;28;20380;-75
2023/08/27 08:50:22;;;;;;;17.98;10.60;;;28.10;73.70;;;;;;5055484;28;20135;-74
2023/08/27 08:52:49;;;;;;;12.43;9.65;;;28.10;73.50;;;;;;5073526;28;20028;-74
2023/08/27 08:55:16;;;;;;;17.30;9.95;;;28.20;73.90;;;;;;5073508;28;20013;-74
2023/08/27 08:57:58;;;;;;;11.75;9.95;;;28.20;74.30;;;;;;5072857;28;20048;-74
2023/08/27 09:00:25;;;;;;;11.10;8.88;;;28.30;74.00;;;;;;5055183;28;20070;-74
2023/08/27 09:02:51;;;;;;;18.00;10.80;;;28.40;74.10;;;;;;5073525;28;20622;-74
2023/08/27 09:05:18;;;;;;;12.20;9.23;;;28.50;73.80;;;;;;5073314;28;20043;-74
2023/08/27 09:07:46;;;;;;;13.85;9.70;;;28.60;73.80;;;;;;5055738;28;20024;-74
2023/08/27 09:10:12;;;;;;;17.15;9.15;;;28.60;73.10;;;;;;5072428;28;20028;-74
2023/08/27 09:12:41;;;;;;;14.95;8.82;;;28.70;73.00;;;;;;5070906;28;20025;-75
2023/08/27 09:15:09;;;;;;;18.42;8.90;;;28.80;73.10;;;;;;5072368;28;20048;-74
2023/08/27 09:17:36;;;;;;;22.80;9.23;;;28.90;73.10;;;;;;5073047;28;20021;-74
2023/08/27 09:20:03;;;;;;;19.33;9.10;;;29.00;72.70;;;;;;5072820;28;20060;-74
2023/08/27 09:22:28;;;;;;;17.38;9.45;;;29.00;72.50;;;;;;5073188;28;20013;-74
2023/08/27 09:24:54;;;;;;;14.25;9.25;;;29.10;71.80;;;;;;5072649;28;20510;-74
2023/08/27 09:27:20;;;;;;;18.45;9.10;;;29.20;72.00;;;;;;5072256;28;20095;-74
2023/08/27 09:29:47;;;;;;;14.85;9.43;;;29.20;72.10;;;;;;5072647;28;20035;-74
2023/08/27 09:32:22;;;;;;;16.27;9.15;;;29.20;71.80;;;;;;5072969;28;20046;-74
2023/08/27 09:34:48;;;;;;;13.57;7.43;;;29.30;71.20;;;;;;5073023;28;20021;-73
2023/08/27 09:37:14;;;;;;;20.05;8.40;;;29.40;67.90;;;;;;5072746;28;20089;-73
2023/08/27 09:39:42;;;;;;;13.15;7.80;;;29.50;68.00;;;;;;5072849;28;20492;-73
2023/08/27 09:42:11;;;;;;;14.00;7.70;;;29.50;68.30;;;;;;5073143;28;20063;-73
2023/08/27 09:44:38;;;;;;;15.05;8.35;;;29.50;68.20;;;;;;5072883;28;20473;-73
2023/08/27 09:47:05;;;;;;;16.55;7.70;;;29.60;68.20;;;;;;5072941;28;20052;-74
2023/08/27 09:49:30;;;;;;;8.52;7.63;;;29.60;68.40;;;;;;5055181;28;20056;-73
2023/08/27 09:51:59;;;;;;;15.73;8.20;;;29.70;68.70;;;;;;5072411;28;20024;-72
2023/08/27 09:54:29;;;;;;;17.30;6.78;;;29.70;68.90;;;;;;5072907;28;20473;-73
2023/08/27 09:57:01;;;;;;;14.93;7.47;;;29.70;68.00;;;;;;5072696;28;20028;-73
2023/08/27 09:59:27;;;;;;;;;;;29.80;66.90;;;;;;5072788;28;20017;-74
2023/08/27 10:01:53;;;;;;;13.23;6.93;;;29.80;66.50;;;;;;5072420;28;20002;-74
2023/08/27 10:04:21;;;;;;;16.85;7.45;;;29.80;66.80;;;;;;5072737;28;20579;-75
2023/08/27 10:06:47;;;;;;;10.77;6.95;;;29.90;67.30;;;;;;5053971;28;20021;-74
2023/08/27 10:09:14;;;;;;;11.30;7.10;;;30.00;65.60;;;;;;5072440;28;20381;-73
2023/08/27 10:11:44;;;;;;;14.80;7.50;;;30.00;64.90;;;;;;5072602;28;20024;-73
2023/08/27 10:14:10;;;;;;;12.00;7.50;;;30.00;64.10;;;;;;5072297;28;20450;-73
2023/08/27 10:16:37;;;;;;;9.68;7.15;;;30.00;64.20;;;;;;5072591;28;20048;-74
2023/08/27 10:19:06;;;;;;;16.00;7.50;;;30.00;64.20;;;;;;5072677;28;20476;-74
2023/08/27 10:21:32;;;;;;;11.63;6.32;;;30.00;64.00;;;;;;5071915;28;20122;-73
2023/08/27 10:23:59;;;;;;;9.65;6.65;;;30.10;63.20;;;;;;5072137;28;20029;-75
2023/08/27 10:26:24;;;;;;;10.15;7.10;;;30.10;62.90;;;;;;5054394;28;20025;-75
2023/08/27 10:28:53;;;;;;;12.93;7.20;;;30.10;62.40;;;;;;5072175;28;20028;-74
2023/08/27 10:31:19;;;;;;;16.20;8.10;;;30.20;63.10;;;;;;5072899;28;20429;-74
2023/08/27 10:33:45;;;;;;;13.95;7.63;;;30.20;63.50;;;;;;5072302;28;20079;-74
2023/08/27 10:36:19;;;;;;;11.35;6.82;;;30.30;64.40;;;;;;5072327;28;20028;-74
2023/08/27 10:38:46;;;;;;;13.57;8.13;;;30.30;63.80;;;;;;5074181;28;20477;-74
2023/08/27 10:41:17;;;;;;;11.95;7.85;;;30.30;64.40;;;;;;5076094;28;20094;-73
2023/08/27 10:44:00;;;;;;;11.48;7.72;;;30.30;64.40;;;;;;5076169;28;20069;-72
2023/08/27 10:46:25;;;;;;;10.35;7.55;;;30.40;65.20;;;;;;5057838;28;20096;-74
2023/08/27 10:48:53;;;;;;;17.15;7.82;;;30.40;65.20;;;;;;5075540;28;20115;-73
2023/08/27 10:51:21;;;;;;;16.27;7.85;;;30.50;64.30;;;;;;5073609;28;20066;-74
2023/08/27 10:53:49;;;;;;;11.50;7.72;;;30.50;64.40;;;;;;5073751;28;20032;-74
2023/08/27 10:56:38;;;;;;;14.00;7.75;;;30.50;64.80;;;;;;5075932;28;20100;-74
2023/08/27 10:59:09;;;;;;;15.77;7.60;;;30.60;64.90;;;;;;5073375;28;20040;-74
2023/08/27 11:01:58;;;;;;;14.63;7.53;;;30.60;64.90;;;;;;5073362;28;20075;-73
2023/08/27 11:04:44;;;;;;;10.93;8.00;;;30.60;64.20;;;;;;5075208;28;20425;-73
2023/08/27 11:07:12;;;;;;;14.43;7.70;;;30.60;64.30;;;;;;5075680;28;20112;-74
2023/08/27 11:10:06;;;;;;;15.55;7.10;;;30.60;64.20;;;;;;5075900;28;20051;-74
2023/08/27 11:12:36;;;;;;;10.15;7.60;;;30.70;64.40;;;;;;5055982;28;20377;-74
2023/08/27 11:15:13;;;;;;;16.90;7.45;;;30.70;65.30;;;;;;5072978;28;20104;-74
2023/08/27 11:17:39;;;;;;;11.75;7.22;;;30.80;64.50;;;;;;5069313;28;20028;-75
2023/08/27 11:20:24;;;;;;;12.50;7.68;;;30.80;62.90;;;;;;5075815;28;20121;-73
2023/08/27 11:23:02;;;;;;;15.75;7.00;;;30.90;62.50;;;;;;5076012;28;20096;-73
2023/08/27 11:25:29;;;;;;;17.58;6.32;;;30.90;61.40;;;;;;5075472;28;20024;-75
2023/08/27 11:27:59;;;;;;;14.50;6.82;;;30.90;61.10;;;;;;5075639;28;20074;-73
2023/08/27 11:30:26;;;;;;;13.93;7.25;;;30.90;61.20;;;;;;5075037;28;20039;-74
2023/08/27 11:32:53;;;;;;;11.23;6.55;;;30.90;62.50;;;;;;5075068;28;20385;-73
2023/08/27 11:35:24;;;;;;;15.98;6.90;;;30.90;63.30;;;;;;5075474;28;20021;-73
2023/08/27 11:37:50;;;;;;;9.40;6.40;;;30.90;63.40;;;;;;5075205;28;20123;-73
2023/08/27 11:40:17;;;;;;;11.38;6.95;;;30.90;62.10;;;;;;5074696;28;20132;-74
2023/08/27 11:42:52;;;;;;;8.90;6.25;;;31.00;61.50;;;;;;5075262;28;20056;-75
2023/08/27 11:45:29;;;;;;;11.85;6.47;;;31.00;60.70;;;;;;5075402;28;20027;-75
2023/08/27 11:47:55;;;;;;;14.25;6.57;;;31.00;60.40;;;;;;5075324;28;20082;-75
2023/08/27 12:10:07;;;;;;;10.48;5.65;;;31.20;57.50;;;;;;5053977;28;20536;-74
2023/08/27 12:12:37;;;;;;;10.48;5.63;;;31.20;56.80;;;;;;5054470;28;20108;-74
2023/08/27 12:15:03;;;;;;;12.25;5.40;;;31.20;56.70;;;;;;5054328;28;20477;-74
2023/08/27 12:17:33;;;;;;;9.23;6.03;;;31.20;56.10;;;;;;5054525;28;20029;-74
2023/08/27 12:20:01;;;;;;;11.10;5.68;;;31.20;55.00;;;;;;5054319;28;20045;-75
2023/08/27 12:22:27;;;;;;;11.73;5.75;;;31.20;54.40;;;;;;5053951;28;20029;-74
2023/08/27 12:24:54;;;;;;;15.52;5.68;;;31.30;54.80;;;;;;5036455;28;20496;-73
2023/08/27 12:27:25;;;;;;;11.48;5.50;;;31.30;55.30;;;;;;5054257;28;20382;-74
2023/08/27 12:29:52;;;;;;;13.80;5.25;;;31.30;55.90;;;;;;5034111;28;20037;-74
2023/08/27 12:32:22;;;;;;;15.20;5.65;;;31.30;56.50;;;;;;5033439;28;20116;-75
2023/08/27 12:34:49;;;;;;;9.98;5.25;;;31.30;55.70;;;;;;5052877;28;20029;-76
2023/08/27 12:37:18;;;;;;;8.90;5.65;;;31.30;56.30;;;;;;5054196;28;20094;-75
2023/08/27 12:39:45;;;;;;;10.95;5.70;;;31.30;56.10;;;;;;5054996;28;20424;-75
2023/08/27 12:42:12;;;;;;;12.27;5.32;;;31.30;56.10;;;;;;5074104;28;20060;-75
2023/08/27 12:44:38;;;;;;;13.70;5.47;;;31.30;56.20;;;;;;5063805;28;20131;-75
2023/08/27 12:47:06;;;;;;;9.40;5.63;;;31.30;55.40;;;;;;5039812;28;20036;-74
2023/08/27 12:49:32;;;;;;;9.93;5.32;;;31.40;55.70;;;;;;5055363;28;20112;-75
2023/08/27 12:51:59;;;;;;;9.80;5.18;;;31.40;55.90;;;;;;5066496;28;20102;-75
2023/08/27 12:54:25;;;;;;;10.65;6.25;;;31.40;55.50;;;;;;5064411;28;20029;-77